الصفحة الرئيسية
METAR-TAF:

METAR-TAF

مطار :

مطار قسطنطين الأكبر في نيش

Niš, صربيا

دائرة عرض: 43-20N, خط طول: 021-54E, ارتفاع: 202 متر

مراقبة الطقس الحالي

تاريخ ووقت الإصدار 24 دقيقة قبل الساعة 06:00UTC
ريح 8 عقدة من الشرق
درجة الحرارة 10°درجة مئوية
الرطوبة 25%
ضغط 1030 hPa
الرؤية 10 كم أو أكثر
الغيوم لا تقل 1500 م ولا وجود لمزنة ركامية السحاب الأسود

METAR: LYNI 060600Z 08008KT CAVOK 10/M09 Q1030 NOSIG

زمن: 08:24 (06:24 UTC)

توقعات

تاريخ ووقت الإصدار 1ساعة و 24 دقيقة قبل الساعة 05:00UTC
التوقعات صالحة من06 الساعة 06 UTC إلى 07 الساعة 06 UTC
ريح 2 عقدةمن اتجاهات متغيرة
الرؤية 10 كم أو أكثر
الغيوم لا تقل 1500 م ولا وجود لمزنة ركامية السحاب الأسود
أصبح
من 06 الساعة 07 UTC إلى 06 الساعة 09 UTC
ريح 8 عقدة من الشرق
مؤقت
من 06 الساعة 11 UTC إلى 06 الساعة 16 UTC
ريح 15 عقدة من الشرق تتزايد حتى 25 عقدة

TAF: LYNI 060500Z 0606/0706 VRB02KT CAVOK TX14/0612Z TN00/0705Z BECMG 0607/0609 08008KT TEMPO 0611/0616 08015G25KT

أرصاد الطقس والتوقعات من أكثر من 4000 مطار (تقارير الطقس للمطار METAR والتنبؤ بالطقس بالمطارTAF).

المحطات المتاحة هي النقط الصفراء والحمراء على الخريطة.

حرك المؤشر فوق النقطة لمعرفة اسم المحطة.

ثم انقر لمعرفة أرصاد وتوقعات الطقس.

لتغيير الخارطة: اضغط على الأزرار الخضراء مع رمز الصليب الأسود للتكبير. على الزر الأخضر مع شرطة للتصغير، أو على الأسهم الخضراء للخرائط المجاورة.


METAR-TAF: